sensor_id;sensor_type;location;lat;lon;timestamp;pressure;altitude;pressure_sealevel;temperature;humidity
14120;BME280;7138;49.246;9.100;2023-06-10T00:01:37;98319.78;;;22.14;68.45
14120;BME280;7138;49.246;9.100;2023-06-10T00:04:04;98319.09;;;22.10;67.92
14120;BME280;7138;49.246;9.100;2023-06-10T00:06:30;98312.38;;;22.05;68.19
14120;BME280;7138;49.246;9.100;2023-06-10T00:09:02;98314.59;;;21.97;68.58
14120;BME280;7138;49.246;9.100;2023-06-10T00:11:30;98315.50;;;21.96;68.25
14120;BME280;7138;49.246;9.100;2023-06-10T00:13:56;98324.47;;;21.92;68.11
14120;BME280;7138;49.246;9.100;2023-06-10T00:16:22;98313.28;;;21.88;68.61
14120;BME280;7138;49.246;9.100;2023-06-10T00:18:50;98309.06;;;21.84;68.47
14120;BME280;7138;49.246;9.100;2023-06-10T00:23:42;98317.34;;;21.76;68.51
14120;BME280;7138;49.246;9.100;2023-06-10T00:26:09;98317.50;;;21.73;68.90
14120;BME280;7138;49.246;9.100;2023-06-10T00:28:35;98311.47;;;21.71;68.90
14120;BME280;7138;49.246;9.100;2023-06-10T00:31:01;98317.66;;;21.70;68.68
14120;BME280;7138;49.246;9.100;2023-06-10T00:33:27;98318.63;;;21.69;69.03
14120;BME280;7138;49.246;9.100;2023-06-10T00:35:54;98314.28;;;21.68;69.13
14120;BME280;7138;49.246;9.100;2023-06-10T00:38:20;98312.56;;;21.67;69.15
14120;BME280;7138;49.246;9.100;2023-06-10T00:40:46;98318.78;;;21.66;68.61
14120;BME280;7138;49.246;9.100;2023-06-10T00:43:12;98322.41;;;21.64;69.23
14120;BME280;7138;49.246;9.100;2023-06-10T00:45:38;98321.63;;;21.62;69.01
14120;BME280;7138;49.246;9.100;2023-06-10T00:48:04;98322.63;;;21.59;69.08
14120;BME280;7138;49.246;9.100;2023-06-10T00:50:31;98319.31;;;21.56;69.23
14120;BME280;7138;49.246;9.100;2023-06-10T00:52:59;98315.81;;;21.55;69.25
14120;BME280;7138;49.246;9.100;2023-06-10T00:55:25;98321.25;;;21.52;69.49
14120;BME280;7138;49.246;9.100;2023-06-10T00:57:53;98309.19;;;21.48;70.10
14120;BME280;7138;49.246;9.100;2023-06-10T01:00:19;98318.91;;;21.46;69.23
14120;BME280;7138;49.246;9.100;2023-06-10T01:02:46;98310.25;;;21.44;69.74
14120;BME280;7138;49.246;9.100;2023-06-10T01:05:12;98325.28;;;21.42;69.57
14120;BME280;7138;49.246;9.100;2023-06-10T01:07:46;98317.44;;;21.41;69.70
14120;BME280;7138;49.246;9.100;2023-06-10T01:10:24;98327.44;;;21.34;70.56
14120;BME280;7138;49.246;9.100;2023-06-10T01:12:59;98321.66;;;21.28;70.32
14120;BME280;7138;49.246;9.100;2023-06-10T01:15:29;98318.22;;;21.25;70.02
14120;BME280;7138;49.246;9.100;2023-06-10T01:17:56;98322.78;;;21.22;70.11
14120;BME280;7138;49.246;9.100;2023-06-10T01:20:23;98325.66;;;21.17;70.60
14120;BME280;7138;49.246;9.100;2023-06-10T01:22:51;98333.69;;;21.14;70.99
14120;BME280;7138;49.246;9.100;2023-06-10T01:25:19;98339.56;;;21.01;71.58
14120;BME280;7138;49.246;9.100;2023-06-10T01:28:00;98333.78;;;20.94;71.80
14120;BME280;7138;49.246;9.100;2023-06-10T01:33:19;98336.16;;;20.82;71.71
14120;BME280;7138;49.246;9.100;2023-06-10T01:35:51;98341.53;;;20.79;71.96
14120;BME280;7138;49.246;9.100;2023-06-10T01:38:20;98342.59;;;20.75;nan
14120;BME280;7138;49.246;9.100;2023-06-10T01:40:49;98340.06;;;20.73;72.01
14120;BME280;7138;49.246;9.100;2023-06-10T01:43:15;98335.78;;;20.70;72.24
14120;BME280;7138;49.246;9.100;2023-06-10T01:45:41;98342.91;;;20.68;72.08
14120;BME280;7138;49.246;9.100;2023-06-10T01:48:06;98343.94;;;20.64;72.30
14120;BME280;7138;49.246;9.100;2023-06-10T01:50:32;98341.47;;;20.61;72.26
14120;BME280;7138;49.246;9.100;2023-06-10T01:52:59;98351.25;;;20.58;72.48
14120;BME280;7138;49.246;9.100;2023-06-10T01:55:27;98350.44;;;20.57;72.48
14120;BME280;7138;49.246;9.100;2023-06-10T01:57:53;98347.81;;;20.57;72.51
14120;BME280;7138;49.246;9.100;2023-06-10T02:00:19;98346.00;;;20.58;72.29
14120;BME280;7138;49.246;9.100;2023-06-10T02:02:44;98339.94;;;20.57;72.17
14120;BME280;7138;49.246;9.100;2023-06-10T02:05:10;98347.00;;;20.55;72.64
14120;BME280;7138;49.246;9.100;2023-06-10T02:07:36;98348.09;;;20.51;72.16
14120;BME280;7138;49.246;9.100;2023-06-10T02:10:02;98345.53;;;20.50;72.30
14120;BME280;7138;49.246;9.100;2023-06-10T02:12:30;98343.81;;;20.49;72.14
14120;BME280;7138;49.246;9.100;2023-06-10T02:14:55;98349.19;;;20.46;72.30
14120;BME280;7138;49.246;9.100;2023-06-10T02:17:21;98350.19;;;20.43;72.38
14120;BME280;7138;49.246;9.100;2023-06-10T02:19:49;98351.28;;;20.39;72.69
14120;BME280;7138;49.246;9.100;2023-06-10T02:22:20;98355.72;;;20.37;72.87
14120;BME280;7138;49.246;9.100;2023-06-10T02:24:46;98359.34;;;20.35;72.48
14120;BME280;7138;49.246;9.100;2023-06-10T02:27:11;98361.22;;;20.33;72.80
14120;BME280;7138;49.246;9.100;2023-06-10T02:29:38;98351.56;;;20.33;72.48
14120;BME280;7138;49.246;9.100;2023-06-10T02:32:06;98359.50;;;20.32;72.45
14120;BME280;7138;49.246;9.100;2023-06-10T02:34:32;98358.63;;;20.31;72.94
14120;BME280;7138;49.246;9.100;2023-06-10T02:36:59;98356.97;;;20.30;73.18
14120;BME280;7138;49.246;9.100;2023-06-10T02:39:25;98353.63;;;20.27;73.15
14120;BME280;7138;49.246;9.100;2023-06-10T02:41:51;98364.13;;;20.27;73.11
14120;BME280;7138;49.246;9.100;2023-06-10T02:44:18;98362.41;;;20.26;73.52
14120;BME280;7138;49.246;9.100;2023-06-10T02:46:46;98362.50;;;20.23;73.19
14120;BME280;7138;49.246;9.100;2023-06-10T02:49:12;98361.78;;;20.19;73.53
14120;BME280;7138;49.246;9.100;2023-06-10T02:51:38;98362.72;;;20.18;73.45
14120;BME280;7138;49.246;9.100;2023-06-10T02:54:04;98363.56;;;20.18;73.52
14120;BME280;7138;49.246;9.100;2023-06-10T02:56:30;98364.41;;;20.19;73.54
14120;BME280;7138;49.246;9.100;2023-06-10T02:58:57;98360.16;;;20.16;73.21
14120;BME280;7138;49.246;9.100;2023-06-10T03:01:23;98354.97;;;20.15;73.40
14120;BME280;7138;49.246;9.100;2023-06-10T03:03:50;98353.47;;;20.09;73.73
14120;BME280;7138;49.246;9.100;2023-06-10T03:06:16;98357.88;;;20.09;73.79
14120;BME280;7138;49.246;9.100;2023-06-10T03:08:43;98352.78;;;20.06;74.06
14120;BME280;7138;49.246;9.100;2023-06-10T03:11:11;98356.31;;;20.05;74.22
14120;BME280;7138;49.246;9.100;2023-06-10T03:13:38;98358.16;;;20.03;74.31
14120;BME280;7138;49.246;9.100;2023-06-10T03:16:05;98363.41;;;20.03;74.24
14120;BME280;7138;49.246;9.100;2023-06-10T03:18:31;98359.19;;;19.99;74.36
14120;BME280;7138;49.246;9.100;2023-06-10T03:20:58;98360.19;;;19.96;74.37
14120;BME280;7138;49.246;9.100;2023-06-10T03:23:24;98364.75;;;19.91;74.39
14120;BME280;7138;49.246;9.100;2023-06-10T03:25:50;98358.69;;;19.91;74.50
14120;BME280;7138;49.246;9.100;2023-06-10T03:28:16;98365.84;;;19.87;74.89
14120;BME280;7138;49.246;9.100;2023-06-10T03:30:42;98365.88;;;19.86;74.80
14120;BME280;7138;49.246;9.100;2023-06-10T03:33:07;98365.13;;;19.84;75.09
14120;BME280;7138;49.246;9.100;2023-06-10T03:35:33;98365.16;;;19.82;75.66
14120;BME280;7138;49.246;9.100;2023-06-10T03:38:01;98374.84;;;19.82;75.65
14120;BME280;7138;49.246;9.100;2023-06-10T03:40:27;98375.78;;;19.79;75.91
14120;BME280;7138;49.246;9.100;2023-06-10T03:42:53;98375.09;;;19.76;75.70
14120;BME280;7138;49.246;9.100;2023-06-10T03:45:19;98380.34;;;19.76;75.83
14120;BME280;7138;49.246;9.100;2023-06-10T03:47:45;98374.28;;;19.74;75.63
14120;BME280;7138;49.246;9.100;2023-06-10T03:50:13;98375.16;;;19.74;75.35
14120;BME280;7138;49.246;9.100;2023-06-10T03:52:39;98374.38;;;19.72;75.65
14120;BME280;7138;49.246;9.100;2023-06-10T03:55:09;98394.50;;;19.72;75.82
14120;BME280;7138;49.246;9.100;2023-06-10T03:57:37;98387.53;;;19.71;75.85
14120;BME280;7138;49.246;9.100;2023-06-10T04:00:03;98387.63;;;19.69;75.89
14120;BME280;7138;49.246;9.100;2023-06-10T04:02:36;98359.31;;;19.55;76.15
14120;BME280;7138;49.246;9.100;2023-06-10T04:05:02;98380.59;;;19.70;75.81
14120;BME280;7138;49.246;9.100;2023-06-10T04:07:28;98387.53;;;19.71;75.92
14120;BME280;7138;49.246;9.100;2023-06-10T04:09:54;98385.72;;;19.73;75.90
14120;BME280;7138;49.246;9.100;2023-06-10T04:12:21;98385.72;;;19.73;76.05
14120;BME280;7138;49.246;9.100;2023-06-10T04:14:47;98388.25;;;19.74;75.98
14120;BME280;7138;49.246;9.100;2023-06-10T04:17:13;98385.78;;;19.71;76.26
14120;BME280;7138;49.246;9.100;2023-06-10T04:19:39;98382.16;;;19.74;76.32
14120;BME280;7138;49.246;9.100;2023-06-10T04:22:05;98382.13;;;19.75;76.53
14120;BME280;7138;49.246;9.100;2023-06-10T04:24:31;98389.00;;;19.78;76.52
14120;BME280;7138;49.246;9.100;2023-06-10T04:26:57;98382.75;;;19.80;76.57
14120;BME280;7138;49.246;9.100;2023-06-10T04:29:24;98384.34;;;19.84;76.41
14120;BME280;7138;49.246;9.100;2023-06-10T04:31:50;98381.63;;;19.86;76.34
14120;BME280;7138;49.246;9.100;2023-06-10T04:34:16;98394.63;;;19.89;76.19
14120;BME280;7138;49.246;9.100;2023-06-10T04:36:42;98396.25;;;19.91;76.55
14120;BME280;7138;49.246;9.100;2023-06-10T04:39:08;98398.84;;;19.93;76.37
14120;BME280;7138;49.246;9.100;2023-06-10T04:41:34;98400.56;;;19.94;76.58
14120;BME280;7138;49.246;9.100;2023-06-10T04:43:59;98395.16;;;19.97;76.63
14120;BME280;7138;49.246;9.100;2023-06-10T04:46:26;98396.81;;;19.99;76.26
14120;BME280;7138;49.246;9.100;2023-06-10T04:48:52;98405.41;;;20.03;76.39
14120;BME280;7138;49.246;9.100;2023-06-10T04:51:20;98406.97;;;20.07;76.46
14120;BME280;7138;49.246;9.100;2023-06-10T04:53:45;98411.09;;;20.12;75.96
14120;BME280;7138;49.246;9.100;2023-06-10T04:56:11;98407.50;;;20.15;76.44
14120;BME280;7138;49.246;9.100;2023-06-10T04:58:37;98412.41;;;20.23;75.64
14120;BME280;7138;49.246;9.100;2023-06-10T05:01:03;98418.28;;;20.29;75.89
14120;BME280;7138;49.246;9.100;2023-06-10T05:03:30;98415.97;;;20.42;76.23
14120;BME280;7138;49.246;9.100;2023-06-10T05:05:56;98423.16;;;20.76;75.11
14120;BME280;7138;49.246;9.100;2023-06-10T05:08:22;98419.78;;;21.28;74.22
14120;BME280;7138;49.246;9.100;2023-06-10T05:10:47;98416.38;;;21.98;74.63
14120;BME280;7138;49.246;9.100;2023-06-10T05:13:13;98414.81;;;22.76;71.29
14120;BME280;7138;49.246;9.100;2023-06-10T05:15:39;98422.91;;;23.52;70.71
14120;BME280;7138;49.246;9.100;2023-06-10T05:18:09;98420.16;;;24.28;69.30
14120;BME280;7138;49.246;9.100;2023-06-10T05:20:37;98427.28;;;25.11;67.60
14120;BME280;7138;49.246;9.100;2023-06-10T05:23:02;98422.22;;;25.88;65.87
14120;BME280;7138;49.246;9.100;2023-06-10T05:25:30;98427.81;;;26.61;64.27
14120;BME280;7138;49.246;9.100;2023-06-10T05:27:56;98439.28;;;27.36;62.54
14120;BME280;7138;49.246;9.100;2023-06-10T05:30:22;98434.16;;;28.04;60.07
14120;BME280;7138;49.246;9.100;2023-06-10T05:32:50;98438.41;;;28.52;59.68
14120;BME280;7138;49.246;9.100;2023-06-10T05:35:16;98431.56;;;28.94;57.77
14120;BME280;7138;49.246;9.100;2023-06-10T05:37:44;98436.06;;;29.27;57.17
14120;BME280;7138;49.246;9.100;2023-06-10T05:40:11;98436.31;;;29.56;57.61
14120;BME280;7138;49.246;9.100;2023-06-10T05:42:37;98427.94;;;30.03;56.55
14120;BME280;7138;49.246;9.100;2023-06-10T05:45:03;98428.28;;;30.51;55.91
14120;BME280;7138;49.246;9.100;2023-06-10T05:47:29;98434.13;;;30.96;55.08
14120;BME280;7138;49.246;9.100;2023-06-10T05:49:55;98434.81;;;31.38;55.18
14120;BME280;7138;49.246;9.100;2023-06-10T05:52:21;98434.47;;;31.81;53.44
14120;BME280;7138;49.246;9.100;2023-06-10T05:54:50;98443.91;;;32.23;53.68
14120;BME280;7138;49.246;9.100;2023-06-10T05:57:16;98446.13;;;32.66;51.99
14120;BME280;7138;49.246;9.100;2023-06-10T05:59:41;98451.09;;;32.98;51.59
14120;BME280;7138;49.246;9.100;2023-06-10T06:02:07;98448.50;;;33.06;51.44
14120;BME280;7138;49.246;9.100;2023-06-10T06:04:34;98451.88;;;33.18;51.34
14120;BME280;7138;49.246;9.100;2023-06-10T06:07:00;98442.03;;;33.36;51.50
14120;BME280;7138;49.246;9.100;2023-06-10T06:09:26;98446.78;;;33.69;50.77
14120;BME280;7138;49.246;9.100;2023-06-10T06:11:53;98447.78;;;33.86;49.76
14120;BME280;7138;49.246;9.100;2023-06-10T06:14:19;98451.84;;;33.90;50.17
14120;BME280;7138;49.246;9.100;2023-06-10T06:16:45;98453.91;;;33.96;49.96
14120;BME280;7138;49.246;9.100;2023-06-10T06:19:10;98450.84;;;34.08;49.04
14120;BME280;7138;49.246;9.100;2023-06-10T06:21:36;98451.41;;;34.12;49.90
14120;BME280;7138;49.246;9.100;2023-06-10T06:24:03;98447.47;;;34.24;50.44
14120;BME280;7138;49.246;9.100;2023-06-10T06:26:28;98448.25;;;34.34;50.40
14120;BME280;7138;49.246;9.100;2023-06-10T06:28:55;98447.06;;;34.37;50.04
14120;BME280;7138;49.246;9.100;2023-06-10T06:31:21;98450.97;;;34.42;50.34
14120;BME280;7138;49.246;9.100;2023-06-10T06:33:47;98457.97;;;34.35;49.25
14120;BME280;7138;49.246;9.100;2023-06-10T06:36:13;98454.63;;;34.16;49.18
14120;BME280;7138;49.246;9.100;2023-06-10T06:38:39;98451.84;;;33.90;50.23
14120;BME280;7138;49.246;9.100;2023-06-10T06:41:05;98458.69;;;33.57;50.24
14120;BME280;7138;49.246;9.100;2023-06-10T06:43:32;98454.03;;;33.32;50.75
14120;BME280;7138;49.246;9.100;2023-06-10T06:45:59;98453.78;;;32.98;51.51
14120;BME280;7138;49.246;9.100;2023-06-10T06:48:25;98460.91;;;32.80;52.33
14120;BME280;7138;49.246;9.100;2023-06-10T06:50:51;98458.09;;;32.62;51.70
14120;BME280;7138;49.246;9.100;2023-06-10T06:53:17;98458.25;;;32.41;51.87
14120;BME280;7138;49.246;9.100;2023-06-10T06:55:43;98456.91;;;32.18;52.63
14120;BME280;7138;49.246;9.100;2023-06-10T06:58:09;98458.00;;;31.87;54.05
14120;BME280;7138;49.246;9.100;2023-06-10T07:00:34;98454.31;;;31.59;55.11
14120;BME280;7138;49.246;9.100;2023-06-10T07:03:02;98453.13;;;31.42;55.82
14120;BME280;7138;49.246;9.100;2023-06-10T07:05:27;98461.81;;;31.35;56.03
14120;BME280;7138;49.246;9.100;2023-06-10T07:07:54;98454.19;;;31.21;55.23
14120;BME280;7138;49.246;9.100;2023-06-10T07:10:21;98454.44;;;31.08;56.66
14120;BME280;7138;49.246;9.100;2023-06-10T07:12:47;98456.09;;;31.00;56.91
14120;BME280;7138;49.246;9.100;2023-06-10T07:15:13;98452.44;;;30.80;55.55
14120;BME280;7138;49.246;9.100;2023-06-10T07:17:39;98452.09;;;30.64;56.51
14120;BME280;7138;49.246;9.100;2023-06-10T07:20:08;98448.53;;;30.54;54.66
14120;BME280;7138;49.246;9.100;2023-06-10T07:22:34;98449.88;;;30.27;56.76
14120;BME280;7138;49.246;9.100;2023-06-10T07:25:00;98447.66;;;30.12;58.28
14120;BME280;7138;49.246;9.100;2023-06-10T07:27:25;98459.19;;;30.12;57.87
14120;BME280;7138;49.246;9.100;2023-06-10T07:29:52;98455.66;;;30.12;57.06
14120;BME280;7138;49.246;9.100;2023-06-10T07:32:18;98455.50;;;30.13;57.08
14120;BME280;7138;49.246;9.100;2023-06-10T07:34:46;98456.09;;;30.17;58.76
14120;BME280;7138;49.246;9.100;2023-06-10T07:37:13;98456.97;;;30.17;57.57
14120;BME280;7138;49.246;9.100;2023-06-10T07:39:39;98448.50;;;30.12;58.00
14120;BME280;7138;49.246;9.100;2023-06-10T07:42:06;98451.28;;;30.11;58.98
14120;BME280;7138;49.246;9.100;2023-06-10T07:44:32;98451.88;;;30.14;59.00
14120;BME280;7138;49.246;9.100;2023-06-10T07:46:58;98452.81;;;30.24;57.35
14120;BME280;7138;49.246;9.100;2023-06-10T07:49:24;98450.59;;;30.29;56.65
14120;BME280;7138;49.246;9.100;2023-06-10T07:51:50;98454.09;;;30.30;55.56
14120;BME280;7138;49.246;9.100;2023-06-10T07:57:58;98450.75;;;29.96;56.88
14120;BME280;7138;49.246;9.100;2023-06-10T08:00:24;98453.69;;;29.93;58.99
14120;BME280;7138;49.246;9.100;2023-06-10T08:02:50;98450.56;;;29.88;56.66
14120;BME280;7138;49.246;9.100;2023-06-10T08:05:16;98453.09;;;29.90;57.82
14120;BME280;7138;49.246;9.100;2023-06-10T08:07:42;98455.38;;;29.94;57.69
14120;BME280;7138;49.246;9.100;2023-06-10T08:10:09;98455.13;;;29.97;57.04
14120;BME280;7138;49.246;9.100;2023-06-10T08:12:35;98451.69;;;30.06;56.69
14120;BME280;7138;49.246;9.100;2023-06-10T08:15:03;98456.97;;;30.17;57.56
14120;BME280;7138;49.246;9.100;2023-06-10T08:17:30;98447.59;;;30.23;57.97
14120;BME280;7138;49.246;9.100;2023-06-10T08:19:56;98440.50;;;30.33;58.23
14120;BME280;7138;49.246;9.100;2023-06-10T08:22:22;98445.41;;;30.49;57.72
14120;BME280;7138;49.246;9.100;2023-06-10T08:24:48;98447.03;;;30.61;57.10
14120;BME280;7138;49.246;9.100;2023-06-10T08:27:14;98439.44;;;30.66;56.51
14120;BME280;7138;49.246;9.100;2023-06-10T08:29:40;98431.19;;;30.69;57.00
14120;BME280;7138;49.246;9.100;2023-06-10T08:32:07;98433.94;;;30.58;56.56
14120;BME280;7138;49.246;9.100;2023-06-10T08:34:34;98441.69;;;30.61;56.47
14120;BME280;7138;49.246;9.100;2023-06-10T08:37:04;98435.34;;;30.62;56.26
14120;BME280;7138;49.246;9.100;2023-06-10T08:39:30;98435.34;;;30.62;58.44
14120;BME280;7138;49.246;9.100;2023-06-10T08:42:04;98438.16;;;30.60;58.85
14120;BME280;7138;49.246;9.100;2023-06-10T08:44:36;98445.81;;;30.74;56.89
14120;BME280;7138;49.246;9.100;2023-06-10T08:47:11;98441.59;;;30.72;57.99
14120;BME280;7138;49.246;9.100;2023-06-10T08:49:43;98432.91;;;30.79;58.00
14120;BME280;7138;49.246;9.100;2023-06-10T08:52:14;98435.59;;;30.89;55.63
14120;BME280;7138;49.246;9.100;2023-06-10T08:54:47;98436.59;;;30.88;55.40
14120;BME280;7138;49.246;9.100;2023-06-10T08:57:15;98427.88;;;30.86;56.23
14120;BME280;7138;49.246;9.100;2023-06-10T08:59:43;98444.22;;;30.93;58.55
14120;BME280;7138;49.246;9.100;2023-06-10T09:02:11;98440.31;;;30.97;56.95
14120;BME280;7138;49.246;9.100;2023-06-10T09:04:38;98427.31;;;30.92;55.56
14120;BME280;7138;49.246;9.100;2023-06-10T09:07:05;98434.97;;;30.97;54.98
14120;BME280;7138;49.246;9.100;2023-06-10T09:09:34;98426.25;;;30.95;55.38
14120;BME280;7138;49.246;9.100;2023-06-10T09:12:01;98424.88;;;31.00;55.52
14120;BME280;7138;49.246;9.100;2023-06-10T09:14:26;98431.19;;;30.99;55.85
14120;BME280;7138;49.246;9.100;2023-06-10T09:16:52;98431.69;;;30.93;56.83
14120;BME280;7138;49.246;9.100;2023-06-10T09:19:23;98429.84;;;30.84;55.67
14120;BME280;7138;49.246;9.100;2023-06-10T09:21:51;98415.78;;;30.92;56.11
14120;BME280;7138;49.246;9.100;2023-06-10T09:24:16;98421.22;;;31.01;55.82
14120;BME280;7138;49.246;9.100;2023-06-10T09:26:43;98410.16;;;31.15;55.78
14120;BME280;7138;49.246;9.100;2023-06-10T09:29:09;98420.44;;;31.29;55.91
14120;BME280;7138;49.246;9.100;2023-06-10T09:31:39;98420.88;;;31.44;55.99
14120;BME280;7138;49.246;9.100;2023-06-10T09:34:07;98412.34;;;31.50;55.88
14120;BME280;7138;49.246;9.100;2023-06-10T09:36:36;98410.81;;;31.57;59.71
14120;BME280;7138;49.246;9.100;2023-06-10T09:39:02;98409.41;;;31.72;57.48
14120;BME280;7138;49.246;9.100;2023-06-10T09:41:35;98407.84;;;31.89;55.55
14120;BME280;7138;49.246;9.100;2023-06-10T09:44:12;98409.56;;;32.00;54.82
14120;BME280;7138;49.246;9.100;2023-06-10T09:46:39;98397.16;;;32.08;53.55
14120;BME280;7138;49.246;9.100;2023-06-10T09:49:04;98399.84;;;32.08;53.34
14120;BME280;7138;49.246;9.100;2023-06-10T09:51:30;98407.88;;;32.08;53.84
14120;BME280;7138;49.246;9.100;2023-06-10T09:54:02;98404.78;;;32.13;53.56
14120;BME280;7138;49.246;9.100;2023-06-10T09:56:33;98404.22;;;32.09;52.72
14120;BME280;7138;49.246;9.100;2023-06-10T09:59:00;98405.19;;;32.18;54.11
14120;BME280;7138;49.246;9.100;2023-06-10T10:01:25;98405.47;;;32.24;55.41
14120;BME280;7138;49.246;9.100;2023-06-10T10:03:51;98399.81;;;32.37;55.05
14120;BME280;7138;49.246;9.100;2023-06-10T10:06:19;98396.53;;;32.43;53.11
14120;BME280;7138;49.246;9.100;2023-06-10T10:08:46;98410.34;;;32.48;51.47
14120;BME280;7138;49.246;9.100;2023-06-10T10:11:17;98401.88;;;32.53;51.04
14120;BME280;7138;49.246;9.100;2023-06-10T10:13:46;98393.13;;;32.51;50.80
14120;BME280;7138;49.246;9.100;2023-06-10T10:16:16;98399.94;;;32.35;50.37
14120;BME280;7138;49.246;9.100;2023-06-10T10:18:49;98388.66;;;32.32;52.34
14120;BME280;7138;49.246;9.100;2023-06-10T10:21:23;98394.03;;;32.32;50.73
14120;BME280;7138;49.246;9.100;2023-06-10T10:24:00;98395.59;;;32.34;51.20
14120;BME280;7138;49.246;9.100;2023-06-10T10:26:31;98393.72;;;32.35;51.03
14120;BME280;7138;49.246;9.100;2023-06-10T10:29:10;98385.03;;;32.23;50.92
14120;BME280;7138;49.246;9.100;2023-06-10T10:31:42;98383.03;;;32.25;51.07
14120;BME280;7138;49.246;9.100;2023-06-10T10:34:16;98379.66;;;32.33;51.54
14120;BME280;7138;49.246;9.100;2023-06-10T10:36:46;98381.63;;;32.40;51.17
14120;BME280;7138;49.246;9.100;2023-06-10T10:39:12;98376.94;;;32.42;50.75
14120;BME280;7138;49.246;9.100;2023-06-10T10:41:40;98372.31;;;32.35;53.41
14120;BME280;7138;49.246;9.100;2023-06-10T10:44:07;98376.09;;;32.42;52.17
14120;BME280;7138;49.246;9.100;2023-06-10T10:46:42;98371.16;;;32.57;51.66
14120;BME280;7138;49.246;9.100;2023-06-10T10:49:10;98366.06;;;32.63;51.62
14120;BME280;7138;49.246;9.100;2023-06-10T10:51:36;98377.34;;;32.47;51.56
14120;BME280;7138;49.246;9.100;2023-06-10T10:54:13;98364.94;;;32.56;54.93
14120;BME280;7138;49.246;9.100;2023-06-10T10:57:10;98368.59;;;32.65;51.56
14120;BME280;7138;49.246;9.100;2023-06-10T10:59:55;98377.16;;;32.68;51.12
14120;BME280;7138;49.246;9.100;2023-06-10T11:02:35;98369.97;;;32.69;50.10
14120;BME280;7138;49.246;9.100;2023-06-10T11:05:06;98363.53;;;32.62;52.38
14120;BME280;7138;49.246;9.100;2023-06-10T11:07:34;98382.13;;;32.54;49.95
14120;BME280;7138;49.246;9.100;2023-06-10T11:10:06;98366.13;;;32.34;49.70
14120;BME280;7138;49.246;9.100;2023-06-10T11:12:52;98370.22;;;32.29;49.82
14120;BME280;7138;49.246;9.100;2023-06-10T11:15:19;98370.38;;;32.27;50.82
14120;BME280;7138;49.246;9.100;2023-06-10T11:18:13;98367.81;;;32.26;51.07
14120;BME280;7138;49.246;9.100;2023-06-10T11:20:57;98362.50;;;32.16;50.76
14120;BME280;7138;49.246;9.100;2023-06-10T11:23:42;98356.59;;;32.13;51.74
14120;BME280;7138;49.246;9.100;2023-06-10T11:26:21;98368.13;;;32.13;51.80
14120;BME280;7138;49.246;9.100;2023-06-10T11:29:09;98364.34;;;32.16;50.80
14120;BME280;7138;49.246;9.100;2023-06-10T11:31:49;98355.31;;;32.07;50.91
14120;BME280;7138;49.246;9.100;2023-06-10T11:34:22;98365.06;;;32.08;50.99
14120;BME280;7138;49.246;9.100;2023-06-10T11:36:49;98356.03;;;32.00;51.78
14120;BME280;7138;49.246;9.100;2023-06-10T11:39:20;98346.59;;;32.05;53.09
14120;BME280;7138;49.246;9.100;2023-06-10T11:41:46;98354.06;;;32.11;51.75
14120;BME280;7138;49.246;9.100;2023-06-10T11:44:14;98358.16;;;32.15;51.91
14120;BME280;7138;49.246;9.100;2023-06-10T11:46:41;98352.91;;;32.23;51.75
14120;BME280;7138;49.246;9.100;2023-06-10T11:49:11;98349.22;;;32.34;55.42
14120;BME280;7138;49.246;9.100;2023-06-10T11:51:38;98355.38;;;32.44;53.38
14120;BME280;7138;49.246;9.100;2023-06-10T11:54:08;98346.09;;;32.38;52.19
14120;BME280;7138;49.246;9.100;2023-06-10T11:56:34;98356.22;;;32.44;51.32
14120;BME280;7138;49.246;9.100;2023-06-10T11:59:03;98352.56;;;32.45;53.06
14120;BME280;7138;49.246;9.100;2023-06-10T12:01:36;98351.69;;;32.55;55.54
14120;BME280;7138;49.246;9.100;2023-06-10T12:04:04;98343.19;;;32.69;52.79
14120;BME280;7138;49.246;9.100;2023-06-10T12:06:42;98349.34;;;32.79;52.00
14120;BME280;7138;49.246;9.100;2023-06-10T12:09:21;98347.66;;;32.78;50.61
14120;BME280;7138;49.246;9.100;2023-06-10T12:11:50;98345.91;;;32.86;50.60
14120;BME280;7138;49.246;9.100;2023-06-10T12:14:50;98349.34;;;32.79;50.26
14120;BME280;7138;49.246;9.100;2023-06-10T12:17:36;98336.16;;;32.68;49.58
14120;BME280;7138;49.246;9.100;2023-06-10T12:20:05;98342.28;;;32.78;53.58
14120;BME280;7138;49.246;9.100;2023-06-10T12:22:36;98336.97;;;32.68;49.63
14120;BME280;7138;49.246;9.100;2023-06-10T12:25:05;98345.31;;;32.65;50.54
14120;BME280;7138;49.246;9.100;2023-06-10T12:27:33;98342.41;;;32.59;49.59
14120;BME280;7138;49.246;9.100;2023-06-10T12:30:01;98343.53;;;32.46;50.35
14120;BME280;7138;49.246;9.100;2023-06-10T12:32:39;98334.31;;;32.31;50.87
14120;BME280;7138;49.246;9.100;2023-06-10T12:35:07;98333.44;;;32.31;51.54
14120;BME280;7138;49.246;9.100;2023-06-10T12:37:33;98339.88;;;32.38;51.22
14120;BME280;7138;49.246;9.100;2023-06-10T12:40:01;98324.53;;;32.40;52.32
14120;BME280;7138;49.246;9.100;2023-06-10T12:42:29;98324.22;;;32.53;50.96
14120;BME280;7138;49.246;9.100;2023-06-10T12:44:56;98338.72;;;32.50;50.04
14120;BME280;7138;49.246;9.100;2023-06-10T12:47:29;98333.91;;;32.54;50.17
14120;BME280;7138;49.246;9.100;2023-06-10T12:49:58;98340.41;;;32.51;50.31
14120;BME280;7138;49.246;9.100;2023-06-10T12:52:24;98328.66;;;32.34;50.05
14120;BME280;7138;49.246;9.100;2023-06-10T12:54:50;98326.34;;;31.83;50.04
14120;BME280;7138;49.246;9.100;2023-06-10T12:57:17;98329.00;;;31.74;50.44
14120;BME280;7138;49.246;9.100;2023-06-10T12:59:43;98331.69;;;31.74;53.22
14120;BME280;7138;49.246;9.100;2023-06-10T13:02:16;98317.63;;;31.72;51.73
14120;BME280;7138;49.246;9.100;2023-06-10T13:04:43;98328.19;;;31.54;51.32
14120;BME280;7138;49.246;9.100;2023-06-10T13:07:11;98338.91;;;31.54;50.50
14120;BME280;7138;49.246;9.100;2023-06-10T13:09:37;98328.78;;;31.58;50.67
14120;BME280;7138;49.246;9.100;2023-06-10T13:12:04;98323.41;;;31.58;50.72
14120;BME280;7138;49.246;9.100;2023-06-10T13:14:30;98320.19;;;31.64;53.08
14120;BME280;7138;49.246;9.100;2023-06-10T13:16:56;98306.22;;;31.79;53.95
14120;BME280;7138;49.246;9.100;2023-06-10T13:19:22;98318.88;;;31.77;51.58
14120;BME280;7138;49.246;9.100;2023-06-10T13:21:48;98319.16;;;31.74;51.66
14120;BME280;7138;49.246;9.100;2023-06-10T13:24:17;98308.31;;;31.85;51.02